createdAt,value
2022-08-23T00:00:05.571Z,63.49
2022-08-23T00:01:03.321Z,62.20
2022-08-23T00:02:02.391Z,63.33
2022-08-23T00:03:02.329Z,63.65
2022-08-23T00:04:02.352Z,63.65
2022-08-23T00:05:07.701Z,62.68
2022-08-23T00:06:03.238Z,62.68
2022-08-23T00:07:02.205Z,63.00
2022-08-23T00:08:02.299Z,62.84
2022-08-23T00:09:02.172Z,62.52
2022-08-23T00:10:02.255Z,62.68
2022-08-23T00:11:02.132Z,62.84
2022-08-23T00:12:02.194Z,63.49
2022-08-23T00:13:02.162Z,62.68
2022-08-23T00:14:02.128Z,62.20
2022-08-23T00:15:02.067Z,62.84
2022-08-23T00:16:02.101Z,62.84
2022-08-23T00:17:02.023Z,63.49
2022-08-23T00:18:02.184Z,63.16
2022-08-23T00:19:01.975Z,63.00
2022-08-23T00:20:02.031Z,62.52
2022-08-23T00:21:01.947Z,62.84
2022-08-23T00:22:01.984Z,63.16
2022-08-23T00:23:01.910Z,61.87
2022-08-23T00:24:01.984Z,62.36
2022-08-23T00:25:01.875Z,63.49
2022-08-23T00:26:01.913Z,63.33
2022-08-23T00:27:01.824Z,62.52
2022-08-23T00:28:02.009Z,62.68
2022-08-23T00:29:01.814Z,62.04
2022-08-23T00:30:01.842Z,62.52
2022-08-23T00:31:01.745Z,61.39
2022-08-23T00:32:01.825Z,62.20
2022-08-23T00:33:01.713Z,62.20
2022-08-23T00:34:01.814Z,63.49
2022-08-23T00:35:01.687Z,62.36
2022-08-23T00:36:01.753Z,63.00
2022-08-23T00:37:01.640Z,62.68
2022-08-23T00:38:31.756Z,63.65
2022-08-23T00:39:02.615Z,62.52
2022-08-23T00:40:01.754Z,63.16
2022-08-23T00:41:01.566Z,62.52
2022-08-23T00:42:01.656Z,61.71
2022-08-23T00:43:01.505Z,62.20
2022-08-23T00:44:01.594Z,62.20
2022-08-23T00:45:01.488Z,62.68
2022-08-23T00:46:01.528Z,62.68
2022-08-23T00:47:01.439Z,62.84
2022-08-23T00:48:02.304Z,62.68
2022-08-23T00:49:01.450Z,62.52
2022-08-23T00:50:01.442Z,63.00
2022-08-23T00:51:01.371Z,62.36
2022-08-23T00:52:01.438Z,62.52
2022-08-23T00:53:01.343Z,62.52
2022-08-23T00:54:01.379Z,64.13
2022-08-23T00:55:01.354Z,62.68
2022-08-23T00:56:01.337Z,63.33
2022-08-23T00:57:01.250Z,64.13
2022-08-23T00:58:01.472Z,63.16
2022-08-23T00:59:01.224Z,62.68
2022-08-23T01:00:01.300Z,63.00
2022-08-23T01:01:01.172Z,63.16
2022-08-23T01:02:01.246Z,63.49
2022-08-23T01:03:01.138Z,63.16
2022-08-23T01:04:04.798Z,63.49
2022-08-23T01:05:01.122Z,63.00
2022-08-23T01:06:01.070Z,63.00
2022-08-23T01:07:01.054Z,62.84
2022-08-23T01:08:01.390Z,62.52
2022-08-23T01:09:01.032Z,63.00
2022-08-23T01:10:02.474Z,63.33
2022-08-23T01:11:01.034Z,62.84
2022-08-23T01:12:01.619Z,63.16
2022-08-23T01:13:00.971Z,62.68
2022-08-23T01:14:01.013Z,63.00
2022-08-23T01:15:00.925Z,63.49
2022-08-23T01:16:01.069Z,63.16
2022-08-23T01:17:00.898Z,62.84
2022-08-23T01:18:01.027Z,62.36
2022-08-23T01:19:00.853Z,63.00
2022-08-23T01:20:01.692Z,63.33
2022-08-23T01:21:00.825Z,62.68
2022-08-23T01:22:00.849Z,63.16
2022-08-23T01:23:00.774Z,63.16
2022-08-23T01:24:00.836Z,62.36
2022-08-23T01:25:07.549Z,62.36
2022-08-23T01:26:01.819Z,63.81
2022-08-23T01:27:00.708Z,62.68
2022-08-23T01:28:00.963Z,62.68
2022-08-23T01:29:00.666Z,62.84
2022-08-23T01:30:00.716Z,62.84
2022-08-23T01:31:00.623Z,63.16
2022-08-23T01:32:00.744Z,63.00
2022-08-23T01:33:00.597Z,62.52
2022-08-23T01:34:00.700Z,62.68
2022-08-23T01:35:00.564Z,63.16
2022-08-23T01:36:00.600Z,63.16
2022-08-23T01:37:00.844Z,63.00
2022-08-23T01:38:00.731Z,63.81
2022-08-23T01:39:00.467Z,63.33
2022-08-23T01:40:00.628Z,63.00
2022-08-23T01:41:00.465Z,63.65
2022-08-23T01:42:00.535Z,64.78
2022-08-23T01:43:01.421Z,63.33
2022-08-23T01:44:00.436Z,60.91
2022-08-23T01:45:00.372Z,61.23
2022-08-23T01:46:00.424Z,61.55
2022-08-23T01:47:00.358Z,62.36
2022-08-23T01:48:00.483Z,62.04
2022-08-23T01:49:00.288Z,62.20
2022-08-23T01:50:00.383Z,62.68
2022-08-23T01:51:00.262Z,62.52
2022-08-23T01:52:00.342Z,63.81
2022-08-23T01:53:00.437Z,63.33
2022-08-23T01:54:00.265Z,63.49
2022-08-23T01:55:00.198Z,63.97
2022-08-23T01:56:00.225Z,62.84
2022-08-23T01:57:00.172Z,63.16
2022-08-23T01:58:00.209Z,62.52
2022-08-23T01:59:00.113Z,63.49
2022-08-23T02:00:00.182Z,62.68
2022-08-23T02:01:00.089Z,63.65
2022-08-23T02:02:00.096Z,63.33
2022-08-23T02:03:00.224Z,63.00
2022-08-23T02:04:04.653Z,62.36
2022-08-23T02:05:01.024Z,62.84
2022-08-23T02:06:00.099Z,62.52
2022-08-23T02:06:59.962Z,61.71
2022-08-23T02:08:00.266Z,63.16
2022-08-23T02:08:59.934Z,63.65
2022-08-23T02:09:59.973Z,63.65
2022-08-23T02:10:59.880Z,63.00
2022-08-23T02:11:59.936Z,63.49
2022-08-23T02:12:59.859Z,63.16
2022-08-23T02:13:59.909Z,63.33
2022-08-23T02:14:59.802Z,63.65
2022-08-23T02:15:59.888Z,63.16
2022-08-23T02:17:03.222Z,63.00
2022-08-23T02:17:59.872Z,62.84
2022-08-23T02:18:59.859Z,63.65
2022-08-23T02:19:59.783Z,62.84
2022-08-23T02:20:59.828Z,62.84
2022-08-23T02:21:59.758Z,63.33
2022-08-23T02:22:59.888Z,62.84
2022-08-23T02:23:59.837Z,63.49
2022-08-23T02:24:59.720Z,63.97
2022-08-23T02:25:59.765Z,64.13
2022-08-23T02:26:59.675Z,64.13
2022-08-23T02:27:59.630Z,63.65
2022-08-23T02:28:59.667Z,64.61
2022-08-23T02:29:59.606Z,63.49
2022-08-23T02:30:59.519Z,63.65
2022-08-23T02:31:59.886Z,63.16
2022-08-23T02:32:59.810Z,64.13
2022-08-23T02:33:59.533Z,63.97
2022-08-23T02:35:05.761Z,64.29
2022-08-23T02:36:00.518Z,63.81
2022-08-23T02:36:59.411Z,64.61
2022-08-23T02:37:59.667Z,64.13
2022-08-23T02:38:59.456Z,63.97
2022-08-23T02:39:59.499Z,64.61
2022-08-23T02:41:00.809Z,64.45
2022-08-23T02:41:59.423Z,64.29
2022-08-23T02:42:59.358Z,64.29
2022-08-23T02:43:59.417Z,64.45
2022-08-23T02:44:59.392Z,64.29
2022-08-23T02:45:59.321Z,64.29
2022-08-23T02:46:59.314Z,64.45
2022-08-23T02:47:59.474Z,64.29
2022-08-23T02:48:59.256Z,64.29
2022-08-23T02:49:59.245Z,64.29
2022-08-23T02:50:59.313Z,64.13
2022-08-23T02:51:59.212Z,63.97
2022-08-23T02:52:59.188Z,63.33
2022-08-23T02:53:59.186Z,63.49
2022-08-23T02:55:00.164Z,63.81
2022-08-23T02:55:59.168Z,63.49
2022-08-23T02:56:59.113Z,62.36
2022-08-23T02:57:59.207Z,63.00
2022-08-23T02:58:59.075Z,63.65
2022-08-23T02:59:59.110Z,63.49
2022-08-23T03:00:59.079Z,63.65
2022-08-23T03:01:59.663Z,63.97
2022-08-23T03:02:59.010Z,63.81
2022-08-23T03:03:58.998Z,63.49
2022-08-23T03:04:58.981Z,63.16
2022-08-23T03:06:25.772Z,63.81
2022-08-23T03:06:59.875Z,63.97
2022-08-23T03:07:59.023Z,63.16
2022-08-23T03:08:58.943Z,63.49
2022-08-23T03:09:58.904Z,63.16
2022-08-23T03:10:58.871Z,64.78
2022-08-23T03:11:58.877Z,64.78
2022-08-23T03:12:58.832Z,63.49
2022-08-23T03:13:58.802Z,64.94
2022-08-23T03:14:58.791Z,63.65
2022-08-23T03:15:58.784Z,63.00
2022-08-23T03:16:58.784Z,64.45
2022-08-23T03:17:58.827Z,63.97
2022-08-23T03:18:58.759Z,64.29
2022-08-23T03:19:58.745Z,62.84
2022-08-23T03:20:58.689Z,60.59
2022-08-23T03:21:58.675Z,61.23
2022-08-23T03:22:58.703Z,61.39
2022-08-23T03:23:58.658Z,61.39
2022-08-23T03:24:58.635Z,61.87
2022-08-23T03:25:58.603Z,62.20
2022-08-23T03:26:58.640Z,62.52
2022-08-23T03:27:58.660Z,62.68
2022-08-23T03:28:58.553Z,62.20
2022-08-23T03:29:58.521Z,62.68
2022-08-23T03:30:58.510Z,63.00
2022-08-23T03:31:58.483Z,64.13
2022-08-23T03:32:58.488Z,63.65
2022-08-23T03:33:58.473Z,62.84
2022-08-23T03:34:59.200Z,62.04
2022-08-23T03:35:58.511Z,63.16
2022-08-23T03:36:59.153Z,63.65
2022-08-23T03:37:58.370Z,62.20
2022-08-23T03:38:58.376Z,62.84
2022-08-23T03:39:58.402Z,62.36
2022-08-23T03:40:58.327Z,62.52
2022-08-23T03:41:58.292Z,62.68
2022-08-23T03:42:58.324Z,62.84
2022-08-23T03:43:58.315Z,61.71
2022-08-23T03:45:02.276Z,62.20
2022-08-23T03:45:58.265Z,63.81
2022-08-23T03:46:58.217Z,63.16
2022-08-23T03:47:58.195Z,62.52
2022-08-23T03:48:58.214Z,64.29
2022-08-23T03:49:58.144Z,63.81
2022-08-23T03:50:58.193Z,63.65
2022-08-23T03:51:58.163Z,70.42
2022-08-23T03:52:58.103Z,62.84
2022-08-23T03:53:58.146Z,62.20
2022-08-23T03:54:58.150Z,63.65
2022-08-23T03:55:58.072Z,62.36
2022-08-23T03:56:58.044Z,62.52
2022-08-23T03:57:58.059Z,62.84
2022-08-23T03:58:57.994Z,63.16
2022-08-23T03:59:58.003Z,62.36
2022-08-23T04:00:58.012Z,62.84
2022-08-23T04:01:58.016Z,62.84
2022-08-23T04:02:57.929Z,62.84
2022-08-23T04:03:57.904Z,63.16
2022-08-23T04:04:57.916Z,62.68
2022-08-23T04:05:57.866Z,63.16
2022-08-23T04:06:57.864Z,62.52
2022-08-23T04:07:57.927Z,62.68
2022-08-23T04:08:57.827Z,62.04
2022-08-23T04:09:57.865Z,63.16
2022-08-23T04:10:57.781Z,63.49
2022-08-23T04:11:57.790Z,63.97
2022-08-23T04:12:57.775Z,63.65
2022-08-23T04:13:58.088Z,63.97
2022-08-23T04:14:57.717Z,64.61
2022-08-23T04:15:57.722Z,64.13
2022-08-23T04:16:57.670Z,63.97
2022-08-23T04:17:57.725Z,63.65
2022-08-23T04:18:57.663Z,63.33
2022-08-23T04:19:57.657Z,64.13
2022-08-23T04:20:57.651Z,65.42
2022-08-23T04:21:57.614Z,64.13
2022-08-23T04:22:57.576Z,64.45
2022-08-23T04:23:57.543Z,64.29
2022-08-23T04:24:57.545Z,63.00
2022-08-23T04:25:57.545Z,63.97
2022-08-23T04:26:57.506Z,63.00
2022-08-23T04:27:57.553Z,63.33
2022-08-23T04:28:57.461Z,62.20
2022-08-23T04:29:57.441Z,63.16
2022-08-23T04:30:57.460Z,63.16
2022-08-23T04:31:57.405Z,61.71
2022-08-23T04:32:57.419Z,62.20
2022-08-23T04:33:57.341Z,62.36
2022-08-23T04:34:57.339Z,63.00
2022-08-23T04:35:57.353Z,64.45
2022-08-23T04:36:57.383Z,63.49
2022-08-23T04:37:57.330Z,62.20
2022-08-23T04:38:57.301Z,62.52
2022-08-23T04:39:57.272Z,61.71
2022-08-23T04:40:57.280Z,62.36
2022-08-23T04:41:57.222Z,63.33
2022-08-23T04:42:57.232Z,61.87
2022-08-23T04:43:57.206Z,61.55
2022-08-23T04:44:57.163Z,63.00
2022-08-23T04:45:57.216Z,62.68
2022-08-23T04:46:57.177Z,63.00
2022-08-23T04:47:57.169Z,62.04
2022-08-23T04:48:57.101Z,62.52
2022-08-23T04:49:57.079Z,62.36
2022-08-23T04:50:57.058Z,62.04
2022-08-23T04:51:57.081Z,62.04
2022-08-23T04:52:57.082Z,61.55
2022-08-23T04:53:57.012Z,65.58
2022-08-23T04:54:57.044Z,63.33
2022-08-23T04:55:56.966Z,61.71
2022-08-23T04:56:56.989Z,63.16
2022-08-23T04:57:57.073Z,61.71
2022-08-23T04:58:56.931Z,61.87
2022-08-23T04:59:56.891Z,61.55
2022-08-23T05:00:56.949Z,62.36
2022-08-23T05:01:56.921Z,62.04
2022-08-23T05:02:56.864Z,61.71
2022-08-23T05:03:56.916Z,61.07
2022-08-23T05:04:56.793Z,61.07
2022-08-23T05:05:56.777Z,61.39
2022-08-23T05:06:56.830Z,62.68
2022-08-23T05:07:56.818Z,62.04
2022-08-23T05:08:56.729Z,62.68
2022-08-23T05:09:56.638Z,63.16
2022-08-23T05:10:56.738Z,62.68
2022-08-23T05:11:56.752Z,61.55
2022-08-23T05:12:56.669Z,62.04
2022-08-23T05:13:56.656Z,62.68
2022-08-23T05:14:56.637Z,63.16
2022-08-23T05:15:56.604Z,63.00
2022-08-23T05:16:56.605Z,61.55
2022-08-23T05:17:56.610Z,62.36
2022-08-23T05:18:56.540Z,63.16
2022-08-23T05:19:56.563Z,63.81
2022-08-23T05:20:56.561Z,62.68
2022-08-23T05:21:57.266Z,63.97
2022-08-23T05:22:56.524Z,63.65
2022-08-23T05:23:57.242Z,62.52
2022-08-23T05:24:56.445Z,62.52
2022-08-23T05:25:56.427Z,62.68
2022-08-23T05:26:56.437Z,63.97
2022-08-23T05:27:56.536Z,62.68
2022-08-23T05:28:56.413Z,62.68
2022-08-23T05:29:56.361Z,62.84
2022-08-23T05:30:57.239Z,61.71
2022-08-23T05:31:56.306Z,62.04
2022-08-23T05:32:56.332Z,61.71
2022-08-23T05:33:56.283Z,63.81
2022-08-23T05:34:56.239Z,63.65
2022-08-23T05:35:56.255Z,62.68
2022-08-23T05:36:56.414Z,63.00
2022-08-23T05:37:56.311Z,62.52
2022-08-23T05:38:56.184Z,63.49
2022-08-23T05:39:56.218Z,62.36
2022-08-23T05:40:56.159Z,62.36
2022-08-23T05:41:56.146Z,64.29
2022-08-23T05:42:56.136Z,62.20
2022-08-23T05:43:56.134Z,63.81
2022-08-23T05:44:56.115Z,65.58
2022-08-23T05:45:56.076Z,63.33
2022-08-23T05:46:56.102Z,62.68
2022-08-23T05:47:56.005Z,64.45
2022-08-23T05:48:56.038Z,62.04
2022-08-23T05:49:55.971Z,62.52
2022-08-23T05:50:55.968Z,64.13
2022-08-23T05:51:55.948Z,64.94
2022-08-23T05:52:55.932Z,64.78
2022-08-23T05:53:55.988Z,62.84
2022-08-23T05:54:55.870Z,63.00
2022-08-23T05:55:55.953Z,62.04
2022-08-23T05:56:55.852Z,64.78
2022-08-23T05:57:55.910Z,63.49
2022-08-23T05:58:59.642Z,62.20
2022-08-23T05:59:55.809Z,62.04
2022-08-23T06:00:55.821Z,62.84
2022-08-23T06:01:55.774Z,62.36
2022-08-23T06:02:55.784Z,62.36
2022-08-23T06:03:55.768Z,61.71
2022-08-23T06:04:57.547Z,63.16
2022-08-23T06:05:55.704Z,62.04
2022-08-23T06:06:55.667Z,64.61
2022-08-23T06:07:55.683Z,63.65
2022-08-23T06:08:55.673Z,63.16
2022-08-23T06:09:55.614Z,63.33
2022-08-23T06:10:55.605Z,64.13
2022-08-23T06:11:55.609Z,64.13
2022-08-23T06:12:55.543Z,63.33
2022-08-23T06:13:55.627Z,62.52
2022-08-23T06:14:55.541Z,62.84
2022-08-23T06:15:55.524Z,63.16
2022-08-23T06:16:56.341Z,63.81
2022-08-23T06:17:55.500Z,63.65
2022-08-23T06:18:55.493Z,63.33
2022-08-23T06:19:55.435Z,63.65
2022-08-23T06:20:55.475Z,65.42
2022-08-23T06:21:55.391Z,64.61
2022-08-23T06:22:55.345Z,63.81
2022-08-23T06:23:55.345Z,63.49
2022-08-23T06:24:55.358Z,64.61
2022-08-23T06:25:55.304Z,64.13
2022-08-23T06:26:55.277Z,62.84
2022-08-23T06:27:55.258Z,64.13
2022-08-23T06:28:55.310Z,63.65
2022-08-23T06:29:55.346Z,64.13
2022-08-23T06:30:55.273Z,64.13
2022-08-23T06:31:55.192Z,62.84
2022-08-23T06:32:55.260Z,64.29
2022-08-23T06:33:55.217Z,62.68
2022-08-23T06:35:15.854Z,62.68
2022-08-23T06:35:56.138Z,62.52
2022-08-23T06:36:55.739Z,64.29
2022-08-23T06:37:55.101Z,63.97
2022-08-23T06:38:55.148Z,62.52
2022-08-23T06:39:55.165Z,65.42
2022-08-23T06:40:55.110Z,63.16
2022-08-23T06:41:55.044Z,62.36
2022-08-23T06:42:55.004Z,62.84
2022-08-23T06:43:54.975Z,62.84
2022-08-23T06:44:54.955Z,63.97
2022-08-23T06:45:58.403Z,63.81
2022-08-23T06:46:55.052Z,66.23
2022-08-23T06:47:55.013Z,64.45
2022-08-23T06:48:54.891Z,63.16
2022-08-23T06:49:58.359Z,62.36
2022-08-23T06:50:54.887Z,62.04
2022-08-23T06:51:54.843Z,64.45
2022-08-23T06:52:54.838Z,65.26
2022-08-23T06:53:54.786Z,62.84
2022-08-23T06:54:54.832Z,63.81
2022-08-23T06:55:54.789Z,64.13
2022-08-23T06:56:54.733Z,63.65
2022-08-23T06:57:54.784Z,63.00
2022-08-23T06:58:54.696Z,63.33
2022-08-23T06:59:54.683Z,63.49
2022-08-23T07:00:57.446Z,63.16
2022-08-23T07:01:54.734Z,63.49
2022-08-23T07:02:54.827Z,63.00
2022-08-23T07:03:54.669Z,65.74
2022-08-23T07:04:54.589Z,66.39
2022-08-23T07:05:54.559Z,64.13
2022-08-23T07:06:54.580Z,70.25
2022-08-23T07:07:54.516Z,64.78
2022-08-23T07:08:54.506Z,63.16
2022-08-23T07:09:54.500Z,63.97
2022-08-23T07:10:54.684Z,63.49
2022-08-23T07:11:54.528Z,62.68
2022-08-23T07:12:54.508Z,65.10
2022-08-23T07:13:54.441Z,63.00
2022-08-23T07:14:54.412Z,62.84
2022-08-23T07:15:54.428Z,63.16
2022-08-23T07:16:54.388Z,66.06
2022-08-23T07:17:54.357Z,64.61
2022-08-23T07:18:54.358Z,63.16
2022-08-23T07:19:54.334Z,61.87
2022-08-23T07:20:54.300Z,62.20
2022-08-23T07:21:54.366Z,63.16
2022-08-23T07:22:54.310Z,63.33
2022-08-23T07:23:54.257Z,62.20
2022-08-23T07:24:54.208Z,62.68
2022-08-23T07:25:54.188Z,63.97
2022-08-23T07:26:54.232Z,63.33
2022-08-23T07:27:54.168Z,63.00
2022-08-23T07:28:54.165Z,63.65
2022-08-23T07:29:54.151Z,65.10
2022-08-23T07:30:54.195Z,64.13
2022-08-23T07:31:54.125Z,63.97
2022-08-23T07:32:54.118Z,63.33
2022-08-23T07:33:54.780Z,63.16
2022-08-23T07:34:54.041Z,64.94
2022-08-23T07:35:54.001Z,63.81
2022-08-23T07:36:54.021Z,64.94
2022-08-23T07:37:54.034Z,63.97
2022-08-23T07:38:54.762Z,66.39
2022-08-23T07:39:58.418Z,65.42
2022-08-23T07:40:54.207Z,63.97
2022-08-23T07:41:53.900Z,63.16
2022-08-23T07:42:53.961Z,65.42
2022-08-23T07:43:53.876Z,64.29
2022-08-23T07:44:53.860Z,63.97
2022-08-23T07:45:53.819Z,64.61
2022-08-23T07:46:53.883Z,64.94
2022-08-23T07:47:53.849Z,64.94
2022-08-23T07:48:54.833Z,64.61
2022-08-23T07:49:53.763Z,64.45
2022-08-23T07:50:56.044Z,64.78
2022-08-23T07:51:54.213Z,64.94
2022-08-23T07:52:53.788Z,64.45
2022-08-23T07:53:53.690Z,63.65
2022-08-23T07:54:53.678Z,64.78
2022-08-23T07:55:53.637Z,64.61
2022-08-23T07:56:53.631Z,63.00
2022-08-23T07:57:53.625Z,64.13
2022-08-23T07:58:53.659Z,63.81
2022-08-23T07:59:53.580Z,64.94
2022-08-23T08:00:53.576Z,64.29
2022-08-23T08:01:53.575Z,65.58
2022-08-23T08:02:53.643Z,64.13
2022-08-23T08:03:53.539Z,63.00
2022-08-23T08:04:53.544Z,63.65
2022-08-23T08:05:54.286Z,63.49
2022-08-23T08:07:16.817Z,65.10
2022-08-23T08:07:54.342Z,65.74
2022-08-23T08:08:53.419Z,63.33
2022-08-23T08:09:53.400Z,64.13
2022-08-23T08:10:53.380Z,64.61
2022-08-23T08:11:53.404Z,63.16
2022-08-23T08:12:53.340Z,64.45
2022-08-23T08:13:53.446Z,64.13
2022-08-23T08:14:53.276Z,65.10
2022-08-23T08:15:53.235Z,63.97
2022-08-23T08:16:53.228Z,63.33
2022-08-23T08:17:53.259Z,63.97
2022-08-23T08:18:53.260Z,63.65
2022-08-23T08:19:53.195Z,65.10
2022-08-23T08:20:53.203Z,64.13
2022-08-23T08:21:53.081Z,64.29
2022-08-23T08:22:58.580Z,64.94
2022-08-23T08:23:54.134Z,63.97
2022-08-23T08:24:53.126Z,64.78
2022-08-23T08:25:53.070Z,65.10
2022-08-23T08:26:53.065Z,65.42
2022-08-23T08:27:53.046Z,64.78
2022-08-23T08:28:53.018Z,65.26
2022-08-23T08:29:52.939Z,65.90
2022-08-23T08:30:52.986Z,63.97
2022-08-23T08:31:54.434Z,64.94
2022-08-23T08:32:52.976Z,63.97
2022-08-23T08:33:52.848Z,64.61
2022-08-23T08:34:52.950Z,65.90
2022-08-23T08:35:59.322Z,66.06
2022-08-23T08:36:53.905Z,66.87
2022-08-23T08:37:52.853Z,65.42
2022-08-23T08:38:55.491Z,64.45
2022-08-23T08:39:53.858Z,66.39
2022-08-23T08:40:52.842Z,69.45
2022-08-23T08:42:04.191Z,66.06
2022-08-23T08:42:53.679Z,65.10
2022-08-23T08:43:52.716Z,63.49
2022-08-23T08:44:52.753Z,65.74
2022-08-23T08:45:56.131Z,63.49
2022-08-23T08:46:53.763Z,62.84
2022-08-23T08:47:52.725Z,63.65
2022-08-23T08:48:52.639Z,64.94
2022-08-23T08:49:52.535Z,64.13
2022-08-23T08:50:52.626Z,64.78
2022-08-23T08:51:52.524Z,64.78
2022-08-23T08:52:52.620Z,64.45
2022-08-23T08:53:52.561Z,64.29
2022-08-23T08:54:53.327Z,65.26
2022-08-23T08:55:52.943Z,64.29
2022-08-23T08:56:52.478Z,65.42
2022-08-23T08:57:53.305Z,64.45
2022-08-23T08:58:52.479Z,63.81
2022-08-23T08:59:52.416Z,65.42
2022-08-23T09:00:56.534Z,64.78
2022-08-23T09:01:52.476Z,64.78
2022-08-23T09:02:52.399Z,64.94
2022-08-23T09:03:52.470Z,63.97
2022-08-23T09:04:52.330Z,64.61
2022-08-23T09:05:52.382Z,63.49
2022-08-23T09:06:52.305Z,64.78
2022-08-23T09:07:52.282Z,64.13
2022-08-23T09:08:52.280Z,63.97
2022-08-23T09:09:52.154Z,65.10
2022-08-23T09:10:52.244Z,64.61
2022-08-23T09:11:52.279Z,65.74
2022-08-23T09:12:52.192Z,65.10
2022-08-23T09:13:52.092Z,63.81
2022-08-23T09:14:52.151Z,63.81
2022-08-23T09:15:52.198Z,64.94
2022-08-23T09:16:52.172Z,63.65
2022-08-23T09:17:52.096Z,64.78
2022-08-23T09:18:52.093Z,63.33
2022-08-23T09:19:51.975Z,63.97
2022-08-23T09:20:52.071Z,63.49
2022-08-23T09:21:52.089Z,64.13
2022-08-23T09:22:52.016Z,63.00
2022-08-23T09:23:58.803Z,63.16
2022-08-23T09:24:52.979Z,63.33
2022-08-23T09:25:51.944Z,63.65
2022-08-23T09:26:51.917Z,64.13
2022-08-23T09:27:51.929Z,63.97
2022-08-23T09:28:51.957Z,63.00
2022-08-23T09:29:51.891Z,63.97
2022-08-23T09:30:52.896Z,63.65
2022-08-23T09:31:51.920Z,64.13
2022-08-23T09:32:51.854Z,63.33
2022-08-23T09:33:51.774Z,65.26
2022-08-23T09:34:51.805Z,66.23
2022-08-23T09:35:51.770Z,63.16
2022-08-23T09:36:52.409Z,64.78
2022-08-23T09:37:51.852Z,62.68
2022-08-23T09:38:51.732Z,63.16
2022-08-23T09:39:51.684Z,63.33
2022-08-23T09:40:51.883Z,62.52
2022-08-23T09:41:51.680Z,62.36
2022-08-23T09:42:51.647Z,65.10
2022-08-23T09:43:51.688Z,62.52
2022-08-23T09:44:51.615Z,61.07
2022-08-23T09:45:51.471Z,62.52
2022-08-23T09:46:51.619Z,64.13
2022-08-23T09:47:51.567Z,64.61
2022-08-23T09:48:51.563Z,63.65
2022-08-23T09:49:51.519Z,60.91
2022-08-23T09:50:51.387Z,60.59
2022-08-23T09:51:53.147Z,61.07
2022-08-23T09:52:52.263Z,61.87
2022-08-23T09:53:51.515Z,63.65
2022-08-23T09:54:51.874Z,64.13
2022-08-23T09:55:51.392Z,62.20
2022-08-23T09:56:51.366Z,62.20
2022-08-23T09:57:51.283Z,61.55
2022-08-23T09:58:51.400Z,61.55
2022-08-23T09:59:51.313Z,62.52
2022-08-23T10:00:51.308Z,61.23
2022-08-23T10:01:51.870Z,63.00
2022-08-23T10:02:51.337Z,61.23
2022-08-23T10:03:51.152Z,61.55
2022-08-23T10:04:51.360Z,62.84
2022-08-23T10:05:51.198Z,61.71
2022-08-23T10:06:51.175Z,64.13
2022-08-23T10:07:51.215Z,63.00
2022-08-23T10:08:51.829Z,61.71
2022-08-23T10:09:51.170Z,61.07
2022-08-23T10:10:51.273Z,62.52
2022-08-23T10:11:51.156Z,62.84
2022-08-23T10:12:51.196Z,61.39
2022-08-23T10:13:50.960Z,61.39
2022-08-23T10:14:51.176Z,61.71
2022-08-23T10:15:51.042Z,62.52
2022-08-23T10:16:51.012Z,61.87
2022-08-23T10:17:50.992Z,61.55
2022-08-23T10:18:50.989Z,62.20
2022-08-23T10:19:50.920Z,63.00
2022-08-23T10:20:51.221Z,61.87
2022-08-23T10:21:51.381Z,63.00
2022-08-23T10:22:50.873Z,62.84
2022-08-23T10:23:50.791Z,62.20
2022-08-23T10:24:50.863Z,62.20
2022-08-23T10:25:50.852Z,62.04
2022-08-23T10:26:50.827Z,62.20
2022-08-23T10:27:50.699Z,61.39
2022-08-23T10:28:50.768Z,61.71
2022-08-23T10:29:50.664Z,61.55
2022-08-23T10:30:50.812Z,61.71
2022-08-23T10:31:50.616Z,62.20
2022-08-23T10:32:50.618Z,61.87
2022-08-23T10:33:50.588Z,62.20
2022-08-23T10:34:50.972Z,61.23
2022-08-23T10:35:50.567Z,62.36
2022-08-23T10:36:51.023Z,63.00
2022-08-23T10:37:50.516Z,62.20
2022-08-23T10:38:50.513Z,62.68
2022-08-23T10:39:50.479Z,62.04
2022-08-23T10:40:50.567Z,61.07
2022-08-23T10:41:50.496Z,61.55
2022-08-23T10:42:50.515Z,61.23
2022-08-23T10:43:50.411Z,61.55
2022-08-23T10:44:50.406Z,60.75
2022-08-23T10:45:50.472Z,61.55
2022-08-23T10:46:50.440Z,60.91
2022-08-23T10:47:50.330Z,61.23
2022-08-23T10:48:50.427Z,61.55
2022-08-23T10:49:50.305Z,60.26
2022-08-23T10:50:55.412Z,61.55
2022-08-23T10:51:51.860Z,62.36
2022-08-23T10:52:50.355Z,60.10
2022-08-23T10:53:50.218Z,61.39
2022-08-23T10:54:50.233Z,62.04
2022-08-23T10:55:50.183Z,61.87
2022-08-23T10:56:51.351Z,62.04
2022-08-23T10:57:50.213Z,61.55
2022-08-23T10:58:50.219Z,60.91
2022-08-23T10:59:50.196Z,61.39
2022-08-23T11:00:50.109Z,61.55
2022-08-23T11:01:50.155Z,60.75
2022-08-23T11:02:50.179Z,62.84
2022-08-23T11:03:50.047Z,62.04
2022-08-23T11:04:50.036Z,61.87
2022-08-23T11:05:50.022Z,60.75
2022-08-23T11:06:49.994Z,61.87
2022-08-23T11:07:50.027Z,61.39
2022-08-23T11:08:50.010Z,62.36
2022-08-23T11:09:50.315Z,61.39
2022-08-23T11:10:55.984Z,61.39
2022-08-23T11:11:50.912Z,62.36
2022-08-23T11:12:49.950Z,61.07
2022-08-23T11:13:49.943Z,61.07
2022-08-23T11:14:49.819Z,61.39
2022-08-23T11:15:49.896Z,61.07
2022-08-23T11:16:49.876Z,62.68
2022-08-23T11:17:49.853Z,60.59
2022-08-23T11:18:49.817Z,61.39
2022-08-23T11:19:49.730Z,62.36
2022-08-23T11:20:49.792Z,59.46
2022-08-23T11:21:49.740Z,61.71
2022-08-23T11:22:49.756Z,61.07
2022-08-23T11:23:49.795Z,59.78
2022-08-23T11:24:49.715Z,60.75
2022-08-23T11:25:49.694Z,62.20
2022-08-23T11:26:49.698Z,65.10
2022-08-23T11:27:49.587Z,61.71
2022-08-23T11:28:49.628Z,60.42
2022-08-23T11:29:49.700Z,61.39
2022-08-23T11:30:49.667Z,61.07
2022-08-23T11:31:49.596Z,60.10
2022-08-23T11:32:49.558Z,62.04
2022-08-23T11:33:49.522Z,60.91
2022-08-23T11:34:49.518Z,61.07
2022-08-23T11:35:49.517Z,61.71
2022-08-23T11:36:49.516Z,62.68
2022-08-23T11:37:49.492Z,61.23
2022-08-23T11:38:49.372Z,62.20
2022-08-23T11:39:49.492Z,62.52
2022-08-23T11:40:49.403Z,61.39
2022-08-23T11:41:49.352Z,60.26
2022-08-23T11:42:49.407Z,60.91
2022-08-23T11:43:49.353Z,61.55
2022-08-23T11:44:49.344Z,60.91
2022-08-23T11:45:49.335Z,62.36
2022-08-23T11:46:49.289Z,62.68
2022-08-23T11:47:49.210Z,61.87
2022-08-23T11:48:49.266Z,61.23
2022-08-23T11:49:49.240Z,62.20
2022-08-23T11:50:51.956Z,61.23
2022-08-23T11:51:50.138Z,61.55
2022-08-23T11:52:49.190Z,61.55
2022-08-23T11:53:49.097Z,60.42
2022-08-23T11:54:49.142Z,60.75
2022-08-23T11:55:49.176Z,60.91
2022-08-23T11:56:49.123Z,64.13
2022-08-23T11:57:49.046Z,60.59
2022-08-23T11:58:49.107Z,60.75
2022-08-23T11:59:49.050Z,59.30
2022-08-23T12:00:49.064Z,60.26
2022-08-23T12:01:49.020Z,61.07
2022-08-23T12:02:49.064Z,59.62
2022-08-23T12:03:49.074Z,60.10
2022-08-23T12:04:48.934Z,60.75
2022-08-23T12:05:48.946Z,59.94
2022-08-23T12:06:50.943Z,60.26
2022-08-23T12:07:48.845Z,61.07
2022-08-23T12:08:48.914Z,60.26
2022-08-23T12:09:48.900Z,60.26
2022-08-23T12:10:48.863Z,60.42
2022-08-23T12:11:48.836Z,63.81
2022-08-23T12:12:48.847Z,62.84
2022-08-23T12:13:48.767Z,59.78
2022-08-23T12:14:48.792Z,61.39
2022-08-23T12:15:48.739Z,60.59
2022-08-23T12:16:49.750Z,60.26
2022-08-23T12:17:49.436Z,59.62
2022-08-23T12:18:48.676Z,60.10
2022-08-23T12:19:48.895Z,59.78
2022-08-23T12:20:48.798Z,60.10
2022-08-23T12:21:48.641Z,59.78
2022-08-23T12:22:48.595Z,61.87
2022-08-23T12:23:48.633Z,59.94
2022-08-23T12:24:52.380Z,60.10
2022-08-23T12:25:48.536Z,60.10
2022-08-23T12:26:48.581Z,60.42
2022-08-23T12:27:48.566Z,59.78
2022-08-23T12:28:48.482Z,60.75
2022-08-23T12:29:48.474Z,61.39
2022-08-23T12:30:48.447Z,59.78
2022-08-23T12:31:48.504Z,60.42
2022-08-23T12:32:48.451Z,60.42
2022-08-23T12:33:48.603Z,60.26
2022-08-23T12:34:48.343Z,60.42
2022-08-23T12:35:48.663Z,59.94
2022-08-23T12:36:48.325Z,59.78
2022-08-23T12:37:48.404Z,58.97
2022-08-23T12:38:48.286Z,61.07
2022-08-23T12:39:48.430Z,60.75
2022-08-23T12:40:48.300Z,61.07
2022-08-23T12:41:48.321Z,60.26
2022-08-23T12:42:48.295Z,59.62
2022-08-23T12:43:48.274Z,59.62
2022-08-23T12:44:48.170Z,59.78
2022-08-23T12:45:48.381Z,59.62
2022-08-23T12:46:48.260Z,59.94
2022-08-23T12:47:48.139Z,59.46
2022-08-23T12:48:48.175Z,60.91
2022-08-23T12:49:48.218Z,60.75
2022-08-23T12:50:48.086Z,59.62
2022-08-23T12:51:48.041Z,59.94